createdAt,value
2022-09-17T00:04:04.614Z,44.96
2022-09-17T00:09:26.548Z,45.19
2022-09-17T00:14:48.178Z,45.15
2022-09-17T00:20:10.975Z,44.83
2022-09-17T00:25:32.799Z,44.85
2022-09-17T00:30:54.544Z,44.58
2022-09-17T00:36:17.510Z,44.83
2022-09-17T00:41:39.814Z,44.56
2022-09-17T00:47:01.626Z,44.55
2022-09-17T00:52:31.149Z,44.77
2022-09-17T00:57:56.652Z,44.59
2022-09-17T01:03:18.486Z,44.82
2022-09-17T01:09:01.447Z,44.80
2022-09-17T01:14:50.384Z,44.65
2022-09-17T01:20:37.151Z,45.04
2022-09-17T01:26:27.005Z,45.00
2022-09-17T01:31:51.745Z,44.86
2022-09-17T01:37:30.511Z,44.71
2022-09-17T01:43:04.164Z,44.85
2022-09-17T01:48:47.721Z,44.64
2022-09-17T01:54:31.243Z,44.92
2022-09-17T01:59:59.755Z,44.67
2022-09-17T02:05:42.315Z,44.54
2022-09-17T02:11:10.550Z,44.67
2022-09-17T02:16:35.918Z,44.64
2022-09-17T02:22:08.514Z,44.84
2022-09-17T02:27:35.912Z,44.54
2022-09-17T02:32:57.814Z,45.04
2022-09-17T02:38:26.630Z,44.90
2022-09-17T02:43:52.121Z,44.75
2022-09-17T02:49:28.676Z,44.60
2022-09-17T02:55:10.734Z,44.77
2022-09-17T03:00:33.214Z,44.61
2022-09-17T03:05:55.827Z,45.11
2022-09-17T03:11:17.499Z,45.11
2022-09-17T03:16:39.384Z,45.13
2022-09-17T03:22:01.354Z,44.69
2022-09-17T03:27:23.090Z,44.85
2022-09-17T03:32:44.957Z,44.93
2022-09-17T03:38:06.597Z,45.09
2022-09-17T03:43:31.220Z,45.07
2022-09-17T03:48:52.903Z,45.04
2022-09-17T03:54:14.543Z,44.74
2022-09-17T03:59:36.177Z,44.96
2022-09-17T04:04:57.801Z,44.73
2022-09-17T04:10:19.540Z,45.00
2022-09-17T04:15:41.857Z,44.86
2022-09-17T04:21:03.875Z,45.00
2022-09-17T04:26:25.830Z,45.14
2022-09-17T04:31:47.493Z,44.98
2022-09-17T04:37:09.314Z,45.01
2022-09-17T04:42:31.019Z,45.10
2022-09-17T04:47:52.695Z,44.96
2022-09-17T04:53:14.501Z,45.06
2022-09-17T04:58:36.183Z,44.83
2022-09-17T05:03:57.906Z,44.76
2022-09-17T05:09:20.011Z,45.00
2022-09-17T05:14:41.719Z,45.00
2022-09-17T05:20:03.622Z,44.85
2022-09-17T05:25:25.478Z,44.89
2022-09-17T05:30:47.203Z,44.97
2022-09-17T05:36:08.946Z,45.14
2022-09-17T05:41:30.702Z,45.08
2022-09-17T05:46:53.629Z,45.07
2022-09-17T05:52:16.420Z,44.85
2022-09-17T05:57:38.101Z,44.76
2022-09-17T06:02:59.816Z,45.06
2022-09-17T06:08:22.581Z,44.97
2022-09-17T06:13:44.301Z,44.77
2022-09-17T06:19:05.954Z,45.25
2022-09-17T06:24:28.146Z,45.17
2022-09-17T06:29:49.776Z,45.04
2022-09-17T06:35:11.431Z,44.81
2022-09-17T06:40:33.281Z,45.00
2022-09-17T06:45:57.464Z,45.01
2022-09-17T06:51:19.201Z,44.73
2022-09-17T06:56:40.816Z,44.79
2022-09-17T07:02:02.558Z,44.66
2022-09-17T07:07:24.312Z,44.35
2022-09-17T07:12:49.797Z,44.87
2022-09-17T07:18:12.126Z,44.60
2022-09-17T07:23:35.811Z,44.58
2022-09-17T07:28:57.489Z,44.57
2022-09-17T07:34:19.226Z,44.48
2022-09-17T07:39:41.451Z,44.52
2022-09-17T07:45:03.117Z,44.02
2022-09-17T07:50:24.770Z,43.88
2022-09-17T07:55:57.646Z,41.72
2022-09-17T08:01:21.372Z,41.37
2022-09-17T08:06:43.205Z,41.15
2022-09-17T08:12:05.569Z,41.78
2022-09-17T08:17:27.221Z,42.33
2022-09-17T08:22:50.258Z,42.13
2022-09-17T08:28:12.086Z,42.67
2022-09-17T08:33:35.674Z,43.00
2022-09-17T08:38:58.758Z,42.99
2022-09-17T08:44:27.737Z,42.83
2022-09-17T08:49:54.177Z,42.73
2022-09-17T08:55:25.996Z,42.98
2022-09-17T09:00:56.033Z,42.76
2022-09-17T09:06:19.845Z,42.76
2022-09-17T09:11:43.685Z,42.94
2022-09-17T09:17:10.103Z,42.99
2022-09-17T09:22:45.546Z,43.01
2022-09-17T09:28:25.261Z,42.61
2022-09-17T09:33:48.170Z,43.08
2022-09-17T09:39:40.328Z,42.55
2022-09-17T09:45:17.257Z,42.46
2022-09-17T09:51:04.676Z,42.63
2022-09-17T09:56:44.131Z,42.67
2022-09-17T10:02:05.958Z,42.77
2022-09-17T10:07:28.447Z,42.46
2022-09-17T10:13:05.844Z,42.84
2022-09-17T10:18:27.497Z,42.88
2022-09-17T10:23:50.946Z,42.43
2022-09-17T10:29:16.876Z,42.38
2022-09-17T10:34:38.711Z,42.70
2022-09-17T10:40:00.473Z,42.64
2022-09-17T10:45:31.213Z,42.66
2022-09-17T10:50:55.902Z,42.56
2022-09-17T10:56:26.641Z,42.32
2022-09-17T11:01:58.403Z,42.36
2022-09-17T11:07:49.580Z,42.35
2022-09-17T11:13:16.926Z,42.01
2022-09-17T11:19:07.855Z,42.14
2022-09-17T11:24:46.829Z,42.11
2022-09-17T11:30:24.579Z,42.44
2022-09-17T11:35:53.049Z,42.05
2022-09-17T11:41:26.102Z,42.43
2022-09-17T11:47:12.871Z,42.34
2022-09-17T11:52:42.889Z,42.32
2022-09-17T11:58:15.331Z,42.27
2022-09-17T12:03:43.892Z,42.56
2022-09-17T12:09:20.011Z,42.52
2022-09-17T12:14:44.313Z,42.16
2022-09-17T12:20:22.719Z,42.49
2022-09-17T12:25:55.917Z,42.35
2022-09-17T12:32:03.775Z,42.47
2022-09-17T12:37:45.642Z,42.19
2022-09-17T12:43:28.936Z,42.19
2022-09-17T12:48:59.493Z,42.49
2022-09-17T12:54:32.261Z,42.64
2022-09-17T13:00:07.444Z,42.18
2022-09-17T13:05:55.242Z,42.38
2022-09-17T13:11:31.879Z,42.16
2022-09-17T13:17:22.691Z,42.32
2022-09-17T13:22:50.310Z,42.50
2022-09-17T13:28:12.204Z,42.57
2022-09-17T13:33:52.186Z,41.97
2022-09-17T13:39:35.873Z,42.03
2022-09-17T13:45:08.909Z,42.34
2022-09-17T13:50:37.250Z,42.14
2022-09-17T13:56:02.071Z,42.60
2022-09-17T14:01:57.614Z,42.49
2022-09-17T14:07:22.014Z,42.25
2022-09-17T14:13:01.013Z,41.93
2022-09-17T14:18:43.541Z,42.39
2022-09-17T14:24:21.967Z,42.17
2022-09-17T14:29:54.547Z,42.57
2022-09-17T14:35:20.193Z,42.41
2022-09-17T14:40:47.421Z,42.39
2022-09-17T14:46:22.766Z,42.38
2022-09-17T14:51:44.491Z,42.43
2022-09-17T14:57:08.913Z,42.47
2022-09-17T15:02:46.425Z,42.70
2022-09-17T15:08:16.170Z,42.30
2022-09-17T15:13:45.690Z,42.51
2022-09-17T15:19:14.350Z,42.29
2022-09-17T15:24:59.152Z,42.57
2022-09-17T15:30:23.384Z,42.29
2022-09-17T15:36:09.430Z,42.22
2022-09-17T15:41:36.249Z,42.56
2022-09-17T15:47:38.005Z,42.07
2022-09-17T15:53:08.790Z,42.55
2022-09-17T15:58:33.395Z,42.38
2022-09-17T16:04:23.964Z,42.54
2022-09-17T16:09:51.047Z,42.54
2022-09-17T16:15:13.580Z,42.52
2022-09-17T16:20:35.221Z,42.59
2022-09-17T16:25:58.073Z,42.15
2022-09-17T16:31:20.659Z,42.14
2022-09-17T16:36:42.474Z,42.63
2022-09-17T16:42:04.390Z,42.60
2022-09-17T16:47:26.013Z,42.28
2022-09-17T16:52:47.739Z,42.18
2022-09-17T16:58:09.533Z,42.18
2022-09-17T17:03:31.173Z,42.43
2022-09-17T17:08:53.073Z,42.18
2022-09-17T17:14:15.107Z,42.57
2022-09-17T17:19:36.958Z,42.57
2022-09-17T17:24:58.714Z,42.20
2022-09-17T17:30:20.424Z,42.43
2022-09-17T17:35:42.129Z,42.69
2022-09-17T17:41:09.586Z,42.59
2022-09-17T17:46:31.340Z,42.69
2022-09-17T17:51:53.632Z,42.86
2022-09-17T17:57:15.309Z,42.34
2022-09-17T18:02:37.147Z,42.31
2022-09-17T18:07:58.877Z,42.73
2022-09-17T18:13:21.228Z,42.42
2022-09-17T18:18:45.356Z,42.74
2022-09-17T18:24:07.208Z,42.45
2022-09-17T18:29:29.236Z,42.69
2022-09-17T18:34:51.740Z,42.57
2022-09-17T18:40:13.895Z,42.87
2022-09-17T18:45:36.081Z,42.40
2022-09-17T18:50:59.678Z,42.34
2022-09-17T18:56:32.773Z,42.64
2022-09-17T19:01:54.464Z,42.84
2022-09-17T19:07:16.241Z,42.90
2022-09-17T19:12:38.206Z,42.75
2022-09-17T19:17:59.953Z,43.02
2022-09-17T19:23:21.750Z,42.79
2022-09-17T19:28:43.620Z,42.89
2022-09-17T19:34:05.270Z,43.04
2022-09-17T19:39:26.935Z,42.96
2022-09-17T19:44:48.764Z,42.92
2022-09-17T19:50:10.437Z,43.22
2022-09-17T19:55:32.125Z,42.94
2022-09-17T20:00:58.499Z,42.77
2022-09-17T20:06:24.196Z,42.94
2022-09-17T20:11:46.012Z,43.06
2022-09-17T20:17:07.682Z,43.12
2022-09-17T20:22:29.344Z,43.29
2022-09-17T20:27:51.110Z,43.22
2022-09-17T20:33:13.222Z,42.99
2022-09-17T20:44:18.016Z,43.02
2022-09-17T20:49:39.668Z,43.28
2022-09-17T20:55:01.348Z,43.40
2022-09-17T21:00:26.525Z,43.31
2022-09-17T21:05:48.652Z,43.40
2022-09-17T21:11:10.452Z,43.31
2022-09-17T21:16:32.249Z,43.43
2022-09-17T21:21:54.762Z,43.38
2022-09-17T21:27:16.445Z,43.22
2022-09-17T21:32:38.404Z,43.33
2022-09-17T21:38:00.196Z,43.11
2022-09-17T21:43:21.995Z,43.47
2022-09-17T21:48:51.784Z,43.26
2022-09-17T21:54:16.983Z,43.24
2022-09-17T21:59:38.793Z,43.28
2022-09-17T22:05:00.425Z,43.52
2022-09-17T22:10:22.061Z,43.69
2022-09-17T22:15:43.758Z,43.45
2022-09-17T22:21:16.723Z,43.46
2022-09-17T22:26:43.495Z,43.79
2022-09-17T22:32:05.317Z,43.36
2022-09-17T22:37:28.903Z,43.37
2022-09-17T22:42:50.557Z,43.67
2022-09-17T22:48:12.217Z,43.72
2022-09-17T22:53:34.797Z,43.60
2022-09-17T22:58:57.543Z,43.76
2022-09-17T23:04:19.199Z,43.64
2022-09-17T23:09:40.817Z,43.76
2022-09-17T23:15:02.552Z,43.93
2022-09-17T23:20:24.195Z,43.50
2022-09-17T23:25:45.805Z,43.82
2022-09-17T23:31:22.309Z,43.91
2022-09-17T23:36:44.164Z,43.65
2022-09-17T23:42:05.920Z,43.51
2022-09-17T23:47:27.741Z,43.75
2022-09-17T23:52:49.394Z,43.80
2022-09-17T23:58:11.058Z,43.61
